Time;durP1;ratioP1;P1;durP2;ratioP2;P2;SDS_P1;SDS_P2;PMS_P1;PMS_P2;Temp;Humidity;BMP_temperature;BMP_pressure;BME280_temperature;BME280_humidity;BME280_pressure;Samples;Min_cycle;Max_cycle;Signal;HPM_P1;HPM_P2
2022/03/06 00:02:11;;;;;;;13.80;3.35;;;2.30;85.60;;;;;;4804809;29;20047;-70
2022/03/06 00:04:39;;;;;;;10.75;2.22;;;2.30;85.40;;;;;;4793444;29;20069;-70
2022/03/06 00:07:06;;;;;;;16.98;2.70;;;2.40;85.30;;;;;;4803746;29;20066;-70
2022/03/06 00:09:34;;;;;;;17.58;3.03;;;2.40;85.40;;;;;;4803972;29;20054;-70
2022/03/06 00:12:02;;;;;;;15.63;2.33;;;2.40;85.50;;;;;;4804358;29;20074;-70
2022/03/06 00:14:30;;;;;;;14.32;2.63;;;2.60;85.40;;;;;;4804306;29;20417;-70
2022/03/06 00:16:57;;;;;;;16.33;3.28;;;2.60;85.30;;;;;;4804141;29;20066;-71
2022/03/06 00:19:25;;;;;;;10.02;2.17;;;2.70;85.10;;;;;;4818411;29;20065;-70
2022/03/06 00:21:53;;;;;;;18.30;2.70;;;2.80;85.00;;;;;;4804631;29;20367;-70
2022/03/06 00:24:21;;;;;;;13.02;2.10;;;2.80;84.90;;;;;;4802412;29;20501;-70
2022/03/06 00:26:48;;;;;;;15.02;2.47;;;2.90;84.90;;;;;;4803792;29;20051;-71
2022/03/06 00:29:16;;;;;;;15.43;2.33;;;3.00;84.80;;;;;;4802838;29;20417;-70
2022/03/06 00:31:45;;;;;;;18.20;2.03;;;3.00;84.70;;;;;;4802243;29;20051;-71
2022/03/06 00:34:13;;;;;;;14.13;2.40;;;3.20;84.50;;;;;;4804328;29;20055;-70
2022/03/06 00:36:40;;;;;;;17.10;2.05;;;3.20;84.40;;;;;;4788412;29;20414;-71
2022/03/06 00:39:08;;;;;;;14.98;2.15;;;3.20;84.30;;;;;;4788624;29;20061;-70
2022/03/06 00:41:37;;;;;;;14.48;2.72;;;3.30;84.10;;;;;;4803013;29;20058;-70
2022/03/06 00:44:05;;;;;;;14.82;2.35;;;3.30;84.00;;;;;;4803927;29;20482;-70
2022/03/06 00:46:32;;;;;;;8.95;2.17;;;3.20;84.00;;;;;;4804135;29;20047;-70
2022/03/06 00:49:01;;;;;;;15.25;2.35;;;3.20;84.00;;;;;;4802025;29;20067;-71
2022/03/06 00:51:29;;;;;;;10.75;2.22;;;3.20;83.90;;;;;;4803435;29;20047;-70
2022/03/06 00:53:57;;;;;;;11.35;2.33;;;3.20;83.90;;;;;;4801049;29;20055;-70
2022/03/06 00:56:26;;;;;;;11.63;2.10;;;3.10;83.90;;;;;;4803126;29;20386;-71
2022/03/06 00:58:53;;;;;;;13.27;2.22;;;3.10;83.90;;;;;;4804394;29;20046;-70
2022/03/06 01:01:22;;;;;;;15.57;2.40;;;3.10;83.90;;;;;;4803726;29;20054;-70
2022/03/06 01:03:50;;;;;;;16.13;2.97;;;3.10;84.00;;;;;;4803173;29;20055;-70
2022/03/06 01:06:18;;;;;;;21.27;2.50;;;3.20;84.00;;;;;;4802699;29;20058;-70
2022/03/06 01:08:46;;;;;;;10.82;2.17;;;3.10;83.90;;;;;;4804544;29;20057;-70
2022/03/06 01:11:13;;;;;;;13.52;2.65;;;3.20;83.80;;;;;;4788632;29;20410;-70
2022/03/06 01:13:41;;;;;;;13.35;2.10;;;3.20;83.80;;;;;;4795829;29;20050;-70
2022/03/06 01:16:09;;;;;;;10.35;2.08;;;3.10;83.80;;;;;;4802684;29;20059;-70
2022/03/06 01:18:36;;;;;;;29.00;3.03;;;3.00;83.80;;;;;;4803789;29;20051;-70
2022/03/06 01:21:04;;;;;;;10.57;2.28;;;3.00;83.90;;;;;;4802697;29;20050;-70
2022/03/06 01:23:33;;;;;;;14.02;2.55;;;2.90;84.00;;;;;;4806702;29;20050;-70
2022/03/06 01:26:00;;;;;;;16.75;2.42;;;2.80;84.00;;;;;;4807390;29;20051;-71
2022/03/06 01:28:28;;;;;;;10.23;2.53;;;2.70;84.20;;;;;;4807402;29;20198;-71
2022/03/06 01:30:56;;;;;;;13.15;2.90;;;2.70;84.30;;;;;;4806987;29;20069;-70
2022/03/06 01:33:23;;;;;;;16.38;2.80;;;2.60;84.40;;;;;;4807675;29;20051;-70
2022/03/06 01:35:51;;;;;;;13.50;2.60;;;2.60;84.50;;;;;;4805784;29;20078;-70
2022/03/06 01:38:19;;;;;;;17.20;2.60;;;2.60;84.60;;;;;;4806999;29;20043;-70
2022/03/06 01:40:47;;;;;;;7.88;2.50;;;2.60;84.60;;;;;;4806758;29;20490;-70
2022/03/06 01:43:14;;;;;;;13.13;2.17;;;2.50;84.60;;;;;;4821401;29;20055;-71
2022/03/06 01:45:42;;;;;;;12.57;3.03;;;2.40;84.70;;;;;;4806956;29;20054;-70
2022/03/06 01:48:10;;;;;;;14.27;2.95;;;2.30;84.80;;;;;;4821290;29;20050;-70
2022/03/06 01:50:39;;;;;;;22.75;3.25;;;2.30;84.90;;;;;;4806603;29;20081;-70
2022/03/06 01:53:12;;;;;;;16.40;2.97;;;2.30;84.90;;;;;;4806494;29;20494;-70
2022/03/06 01:55:42;;;;;;;15.90;3.10;;;2.30;85.00;;;;;;4806367;29;20049;-70
2022/03/06 01:58:11;;;;;;;13.65;3.05;;;2.30;85.00;;;;;;4806988;29;20532;-70
2022/03/06 02:00:49;;;;;;;9.25;2.70;;;2.30;85.00;;;;;;4806046;29;20042;-70
2022/03/06 02:03:18;;;;;;;13.68;3.08;;;2.20;84.90;;;;;;4804194;29;20059;-70
2022/03/06 02:05:48;;;;;;;13.80;2.70;;;2.20;85.20;;;;;;4806817;29;20055;-70
2022/03/06 02:08:16;;;;;;;13.68;2.95;;;2.10;85.40;;;;;;4806935;29;20055;-70
2022/03/06 02:10:43;;;;;;;15.30;2.72;;;2.10;85.50;;;;;;4806696;29;20058;-69
2022/03/06 02:13:11;;;;;;;21.85;3.55;;;2.10;85.40;;;;;;4806197;29;20127;-70
2022/03/06 02:15:39;;;;;;;10.75;2.80;;;2.00;85.50;;;;;;4806003;29;20506;-70
2022/03/06 02:18:06;;;;;;;15.15;3.00;;;2.00;85.60;;;;;;4805755;29;20050;-72
2022/03/06 02:20:36;;;;;;;15.20;2.88;;;1.90;85.70;;;;;;4802059;29;20060;-70
2022/03/06 02:23:04;;;;;;;16.05;3.03;;;1.90;85.80;;;;;;4802620;29;20059;-70
2022/03/06 02:25:35;;;;;;;14.95;2.70;;;1.90;85.90;;;;;;4805808;29;20066;-70
2022/03/06 02:28:08;;;;;;;19.15;3.50;;;1.90;85.90;;;;;;4805303;29;20066;-70
2022/03/06 02:30:37;;;;;;;;;;;1.90;85.90;;;;;;4789295;29;20055;-71
2022/03/06 02:33:07;;;;;;;11.20;2.70;;;1.90;85.90;;;;;;4802863;29;20404;-71
2022/03/06 02:35:36;;;;;;;18.17;3.00;;;1.90;85.90;;;;;;4805038;29;20046;-70
2022/03/06 02:38:05;;;;;;;23.45;3.95;;;1.90;85.80;;;;;;4804806;29;20417;-70
2022/03/06 02:40:41;;;;;;;10.05;3.35;;;1.90;85.80;;;;;;4819967;29;20054;-70
2022/03/06 02:43:12;;;;;;;12.80;4.43;;;1.80;85.70;;;;;;4820174;29;20505;-70
2022/03/06 02:45:40;;;;;;;15.50;5.07;;;1.80;85.90;;;;;;4804740;29;20061;-71
2022/03/06 02:48:09;;;;;;;12.95;4.53;;;1.80;86.00;;;;;;4805389;29;20405;-70
2022/03/06 02:50:42;;;;;;;18.45;5.47;;;1.90;86.10;;;;;;4806026;29;20055;-70
2022/03/06 02:53:09;;;;;;;16.17;4.03;;;1.90;86.10;;;;;;4805681;29;20511;-71
2022/03/06 02:55:38;;;;;;;25.60;4.90;;;2.10;86.10;;;;;;4805270;29;20070;-70
2022/03/06 02:58:06;;;;;;;12.05;4.35;;;2.10;86.00;;;;;;4806261;29;20043;-70
2022/03/06 03:00:34;;;;;;;11.23;4.65;;;2.10;85.80;;;;;;4806001;29;20062;-70
2022/03/06 03:03:01;;;;;;;15.88;4.22;;;2.00;85.80;;;;;;4806119;29;20549;-70
2022/03/06 03:05:29;;;;;;;14.23;4.18;;;2.00;85.80;;;;;;4805744;29;20058;-70
2022/03/06 03:07:57;;;;;;;22.55;3.90;;;2.00;85.90;;;;;;4804845;29;20058;-70
2022/03/06 03:10:26;;;;;;;13.93;3.42;;;2.00;85.90;;;;;;4805722;29;20050;-70
2022/03/06 03:12:55;;;;;;;12.63;3.45;;;2.00;85.90;;;;;;4802282;29;20050;-70
2022/03/06 03:15:23;;;;;;;12.43;3.35;;;2.00;86.00;;;;;;4803833;29;20057;-70
2022/03/06 03:17:51;;;;;;;12.23;3.10;;;2.00;85.80;;;;;;4805660;29;20062;-70
2022/03/06 03:20:19;;;;;;;17.40;4.07;;;2.00;85.80;;;;;;4805620;29;20051;-70
2022/03/06 03:22:46;;;;;;;14.57;4.10;;;1.90;85.80;;;;;;4805091;29;20058;-70
2022/03/06 03:25:14;;;;;;;17.10;4.65;;;1.90;85.80;;;;;;4805544;29;20045;-70
2022/03/06 03:27:42;;;;;;;19.58;5.32;;;1.80;85.80;;;;;;4804193;29;20066;-71
2022/03/06 03:30:11;;;;;;;17.15;5.47;;;1.80;85.90;;;;;;4793770;29;20055;-71
2022/03/06 03:32:39;;;;;;;11.45;4.85;;;1.80;86.00;;;;;;4791625;29;20047;-70
2022/03/06 03:35:07;;;;;;;12.35;5.18;;;1.80;86.00;;;;;;4819677;29;20050;-70
2022/03/06 03:37:36;;;;;;;13.13;4.90;;;1.80;86.00;;;;;;4804182;29;20054;-71
2022/03/06 03:40:06;;;;;;;16.27;5.25;;;1.80;86.00;;;;;;4805777;29;20552;-71
2022/03/06 03:42:34;;;;;;;14.18;5.60;;;1.80;86.00;;;;;;4804884;29;20046;-71
2022/03/06 03:45:03;;;;;;;16.38;5.65;;;1.80;85.90;;;;;;4805062;29;20043;-71
2022/03/06 03:47:31;;;;;;;19.15;4.88;;;1.80;85.90;;;;;;4804544;29;20062;-71
2022/03/06 03:49:59;;;;;;;10.80;3.83;;;1.80;86.00;;;;;;4805455;29;20054;-71
2022/03/06 03:52:26;;;;;;;17.30;3.50;;;1.80;85.90;;;;;;4805076;29;20070;-70
2022/03/06 03:54:55;;;;;;;15.95;3.50;;;1.90;85.90;;;;;;4805323;29;20055;-70
2022/03/06 03:57:25;;;;;;;10.85;3.28;;;2.00;85.90;;;;;;4818828;29;20062;-71
2022/03/06 03:59:53;;;;;;;10.10;3.00;;;2.00;85.80;;;;;;4805101;29;20051;-71
2022/03/06 04:02:21;;;;;;;8.05;3.03;;;2.00;85.70;;;;;;4819772;29;20065;-71
2022/03/06 04:04:49;;;;;;;17.15;3.42;;;2.00;85.60;;;;;;4803087;29;20058;-70
2022/03/06 04:07:17;;;;;;;16.30;3.47;;;2.10;85.60;;;;;;4804934;29;20434;-71
2022/03/06 04:09:44;;;;;;;15.70;3.15;;;2.20;85.60;;;;;;4804708;29;20058;-71
2022/03/06 04:12:12;;;;;;;12.65;3.03;;;2.20;85.60;;;;;;4803713;29;20047;-71
2022/03/06 04:14:40;;;;;;;14.15;3.08;;;2.30;85.50;;;;;;4804705;29;20061;-71
2022/03/06 04:17:07;;;;;;;14.82;3.20;;;2.30;85.40;;;;;;4818324;29;20083;-71
2022/03/06 04:19:35;;;;;;;18.65;3.30;;;2.30;85.40;;;;;;4815738;29;20059;-71
2022/03/06 04:22:03;;;;;;;14.55;2.92;;;2.30;85.40;;;;;;4803980;29;20518;-71
2022/03/06 04:24:31;;;;;;;20.83;3.80;;;2.30;85.60;;;;;;4804304;29;20054;-70
2022/03/06 04:26:58;;;;;;;15.20;3.67;;;2.30;85.60;;;;;;4804582;29;20055;-70
2022/03/06 04:29:26;;;;;;;16.33;4.05;;;2.30;85.70;;;;;;4804551;29;20043;-70
2022/03/06 04:31:54;;;;;;;10.52;3.13;;;2.30;85.70;;;;;;4804700;29;20054;-70
2022/03/06 04:34:22;;;;;;;10.27;3.60;;;2.40;85.70;;;;;;4804760;29;20492;-70
2022/03/06 04:36:50;;;;;;;13.30;3.33;;;2.40;85.80;;;;;;4804382;29;20081;-70
2022/03/06 04:39:18;;;;;;;20.25;3.72;;;2.40;85.80;;;;;;4803604;29;20151;-70
2022/03/06 04:41:46;;;;;;;18.85;4.13;;;2.50;85.90;;;;;;4804633;29;20061;-70
2022/03/06 04:44:14;;;;;;;15.65;4.50;;;2.50;85.90;;;;;;4804311;29;20047;-70
2022/03/06 04:46:43;;;;;;;22.08;4.55;;;2.50;85.80;;;;;;4803834;29;20058;-70
2022/03/06 04:49:11;;;;;;;12.07;3.25;;;2.40;85.80;;;;;;4826761;29;20047;-69
2022/03/06 04:51:39;;;;;;;13.80;3.83;;;2.30;85.90;;;;;;4804684;29;20066;-69
2022/03/06 04:54:07;;;;;;;14.80;3.63;;;2.20;86.00;;;;;;4805176;29;20051;-70
2022/03/06 04:56:35;;;;;;;15.68;3.97;;;2.10;86.20;;;;;;4805886;29;20054;-70
2022/03/06 04:59:03;;;;;;;13.30;3.38;;;1.90;86.40;;;;;;4807565;29;20438;-70
2022/03/06 05:01:31;;;;;;;20.83;4.03;;;1.80;86.60;;;;;;4801605;29;20414;-71
2022/03/06 05:04:01;;;;;;;21.90;4.38;;;1.70;86.90;;;;;;4807652;29;20390;-70
2022/03/06 05:06:29;;;;;;;17.25;4.35;;;1.60;87.10;;;;;;4807800;29;20709;-70
2022/03/06 05:08:56;;;;;;;17.35;4.50;;;1.60;87.30;;;;;;4808046;29;20051;-70
2022/03/06 05:11:24;;;;;;;16.48;4.32;;;1.60;87.30;;;;;;4808071;29;20061;-70
2022/03/06 05:13:51;;;;;;;15.63;4.22;;;1.50;87.20;;;;;;4807781;29;20134;-70
2022/03/06 05:16:19;;;;;;;21.58;4.30;;;1.60;87.20;;;;;;4807284;29;20103;-70
2022/03/06 05:18:47;;;;;;;14.40;3.40;;;1.50;87.40;;;;;;4807424;29;20042;-70
2022/03/06 05:21:14;;;;;;;19.13;4.50;;;1.30;87.60;;;;;;4807667;29;20062;-70
2022/03/06 05:23:42;;;;;;;25.40;4.95;;;1.30;87.80;;;;;;4806105;29;20051;-70
2022/03/06 05:26:10;;;;;;;16.75;4.47;;;1.30;87.90;;;;;;4807623;29;20051;-71
2022/03/06 05:28:39;;;;;;;16.27;4.07;;;1.30;87.90;;;;;;4807511;29;20054;-70
2022/03/06 05:31:10;;;;;;;10.55;3.92;;;1.30;87.90;;;;;;4804606;29;20050;-69
2022/03/06 05:33:38;;;;;;;27.67;5.57;;;1.40;87.90;;;;;;4801817;29;20062;-70
2022/03/06 05:36:05;;;;;;;27.95;5.45;;;1.40;87.90;;;;;;4821373;29;20057;-70
2022/03/06 05:38:33;;;;;;;23.92;5.72;;;1.40;87.90;;;;;;4806454;29;20054;-70
2022/03/06 05:41:01;;;;;;;23.42;4.75;;;1.50;87.90;;;;;;4801503;29;20197;-70
2022/03/06 05:43:28;;;;;;;18.83;4.95;;;1.50;88.00;;;;;;4807074;29;20063;-70
2022/03/06 05:45:56;;;;;;;18.55;4.18;;;1.60;87.90;;;;;;4806878;29;20050;-70
2022/03/06 05:48:24;;;;;;;15.20;4.57;;;1.60;87.90;;;;;;4804666;29;20078;-70
2022/03/06 05:50:52;;;;;;;14.13;4.45;;;1.60;87.90;;;;;;4807089;29;20058;-70
2022/03/06 05:53:20;;;;;;;18.13;4.20;;;1.60;88.00;;;;;;4806503;29;20078;-70
2022/03/06 05:55:48;;;;;;;14.90;4.00;;;1.60;88.00;;;;;;4807181;29;20051;-70
2022/03/06 05:58:16;;;;;;;18.27;5.05;;;1.50;87.90;;;;;;4806866;29;20081;-71
2022/03/06 06:00:43;;;;;;;18.30;4.45;;;1.50;87.90;;;;;;4806686;29;20046;-70
2022/03/06 06:03:11;;;;;;;18.08;4.80;;;1.40;88.00;;;;;;4806079;29;20051;-70
2022/03/06 06:05:39;;;;;;;20.38;4.95;;;1.40;88.10;;;;;;4806210;29;20051;-71
2022/03/06 06:08:06;;;;;;;17.13;4.53;;;1.30;88.10;;;;;;4806858;29;20051;-70
2022/03/06 06:10:34;;;;;;;19.98;4.40;;;1.30;88.20;;;;;;4806325;29;20047;-70
2022/03/06 06:13:02;;;;;;;12.60;3.72;;;1.20;88.40;;;;;;4807188;29;20070;-70
2022/03/06 06:15:30;;;;;;;21.60;4.40;;;1.20;88.50;;;;;;4806515;29;20402;-70
2022/03/06 06:17:57;;;;;;;14.48;4.78;;;1.10;88.40;;;;;;4806765;29;20521;-70
2022/03/06 06:20:25;;;;;;;18.73;4.75;;;1.10;88.50;;;;;;4806472;29;20054;-71
2022/03/06 06:22:53;;;;;;;16.25;4.63;;;1.00;88.60;;;;;;4790213;29;20639;-70
2022/03/06 06:25:20;;;;;;;17.35;4.72;;;0.90;88.70;;;;;;4806155;29;20055;-70
2022/03/06 06:27:48;;;;;;;19.55;5.43;;;0.80;88.60;;;;;;4806267;29;20505;-70
2022/03/06 06:30:16;;;;;;;20.63;5.43;;;0.80;88.80;;;;;;4806292;29;20051;-71
2022/03/06 06:32:43;;;;;;;18.92;6.47;;;0.80;88.70;;;;;;4805479;29;20405;-71
2022/03/06 06:35:11;;;;;;;23.73;5.97;;;0.60;88.80;;;;;;4806180;29;20050;-71
2022/03/06 06:37:39;;;;;;;21.20;6.32;;;0.60;89.00;;;;;;4800863;29;20066;-72
2022/03/06 06:40:07;;;;;;;17.92;6.25;;;0.60;89.20;;;;;;4805521;29;20050;-71
2022/03/06 06:42:34;;;;;;;21.05;6.07;;;0.60;89.20;;;;;;4806212;29;20051;-72
2022/03/06 06:45:03;;;;;;;17.15;5.50;;;0.50;89.20;;;;;;4806089;29;20051;-71
2022/03/06 06:47:30;;;;;;;16.27;5.22;;;0.50;89.20;;;;;;4806573;29;20073;-71
2022/03/06 06:49:58;;;;;;;15.75;4.93;;;0.60;89.30;;;;;;4805509;29;20046;-71
2022/03/06 06:52:26;;;;;;;18.48;5.68;;;0.60;89.40;;;;;;4806194;29;20067;-71
2022/03/06 06:54:53;;;;;;;13.30;5.07;;;0.60;89.30;;;;;;4806032;29;20063;-72
2022/03/06 06:57:21;;;;;;;13.82;5.22;;;0.60;89.40;;;;;;4806015;29;20516;-71
2022/03/06 06:59:49;;;;;;;20.60;6.75;;;0.70;89.40;;;;;;4805825;29;20051;-72
2022/03/06 07:02:16;;;;;;;23.30;6.97;;;0.60;89.40;;;;;;4805853;29;20061;-71
2022/03/06 07:04:44;;;;;;;21.10;7.32;;;0.60;89.30;;;;;;4806026;29;20050;-71
2022/03/06 07:07:12;;;;;;;10.90;5.97;;;0.50;89.30;;;;;;4805784;29;20062;-71
2022/03/06 07:09:40;;;;;;;21.08;7.07;;;0.50;89.30;;;;;;4804146;29;20062;-71
2022/03/06 07:12:08;;;;;;;19.88;6.85;;;0.50;89.30;;;;;;4804131;29;20059;-71
2022/03/06 07:14:36;;;;;;;21.73;7.03;;;0.40;89.30;;;;;;4805193;29;20051;-71
2022/03/06 07:17:04;;;;;;;25.80;7.07;;;0.30;89.50;;;;;;4803245;29;20055;-72
2022/03/06 07:19:31;;;;;;;17.92;6.43;;;0.40;89.60;;;;;;4804987;29;20059;-71
2022/03/06 07:21:59;;;;;;;22.92;6.50;;;0.40;89.70;;;;;;4805832;29;20058;-71
2022/03/06 07:24:27;;;;;;;18.20;6.47;;;0.40;89.80;;;;;;4803755;29;20058;-71
2022/03/06 07:26:55;;;;;;;20.73;6.63;;;0.50;89.90;;;;;;4805295;29;20051;-71
2022/03/06 07:29:22;;;;;;;21.83;6.18;;;0.50;89.90;;;;;;4805373;29;20074;-71
2022/03/06 07:31:50;;;;;;;22.27;6.40;;;0.60;89.80;;;;;;4805720;29;20051;-71
2022/03/06 07:34:18;;;;;;;22.25;6.45;;;0.60;89.80;;;;;;4805463;29;20062;-71
2022/03/06 07:36:45;;;;;;;22.15;6.50;;;0.60;89.80;;;;;;4803954;29;20051;-71
2022/03/06 07:39:13;;;;;;;19.85;5.90;;;0.70;89.90;;;;;;4805772;29;20500;-71
2022/03/06 07:41:40;;;;;;;16.70;5.03;;;0.70;89.90;;;;;;4805192;29;20046;-71
2022/03/06 07:44:08;;;;;;;13.43;5.53;;;0.80;90.00;;;;;;4796978;29;20048;-72
2022/03/06 07:46:36;;;;;;;22.65;5.97;;;0.80;90.00;;;;;;4801485;29;20055;-72
2022/03/06 07:49:03;;;;;;;12.75;5.05;;;0.80;90.00;;;;;;4804773;29;20059;-71
2022/03/06 07:51:31;;;;;;;16.63;4.75;;;0.90;89.90;;;;;;4805271;29;20077;-71
2022/03/06 07:53:59;;;;;;;20.38;5.03;;;1.00;90.00;;;;;;4805008;29;20062;-71
2022/03/06 07:56:26;;;;;;;17.20;5.32;;;1.00;90.00;;;;;;4803665;29;20062;-71
2022/03/06 07:58:54;;;;;;;20.60;5.30;;;1.10;90.00;;;;;;4803667;29;20417;-71
2022/03/06 08:01:23;;;;;;;18.60;5.88;;;1.20;89.90;;;;;;4818444;29;20090;-71
2022/03/06 08:03:51;;;;;;;17.65;5.53;;;1.20;90.00;;;;;;4804609;29;20410;-70
2022/03/06 08:06:18;;;;;;;17.08;5.75;;;1.30;89.90;;;;;;4803250;29;20055;-70
2022/03/06 08:08:46;;;;;;;18.60;4.80;;;1.30;90.00;;;;;;4804854;29;20043;-70
2022/03/06 08:11:13;;;;;;;14.02;5.18;;;1.40;90.00;;;;;;4804958;29;20423;-70
2022/03/06 08:13:41;;;;;;;26.85;4.88;;;1.50;90.00;;;;;;4800345;29;20055;-71
2022/03/06 08:16:09;;;;;;;17.40;5.80;;;1.60;90.00;;;;;;4799376;29;20051;-71
2022/03/06 08:18:36;;;;;;;15.05;4.65;;;1.80;90.00;;;;;;4803453;29;20058;-71
2022/03/06 08:21:04;;;;;;;21.60;5.15;;;1.80;89.90;;;;;;4805068;29;20058;-72
2022/03/06 08:23:32;;;;;;;14.48;4.07;;;1.90;89.80;;;;;;4805236;29;20421;-71
2022/03/06 08:26:00;;;;;;;12.73;3.83;;;2.00;89.70;;;;;;4804422;29;20062;-70
2022/03/06 08:28:27;;;;;;;16.02;4.55;;;2.10;89.70;;;;;;4804462;29;20058;-71
2022/03/06 08:30:55;;;;;;;13.82;4.20;;;2.20;89.70;;;;;;4808513;29;20059;-71
2022/03/06 08:33:22;;;;;;;10.45;4.53;;;2.20;89.60;;;;;;4808225;29;20054;-71
2022/03/06 08:35:51;;;;;;;13.20;3.80;;;2.20;89.50;;;;;;4807448;29;20047;-71
2022/03/06 08:38:19;;;;;;;11.98;3.72;;;2.30;89.50;;;;;;4776471;29;20189;-71
2022/03/06 08:40:46;;;;;;;25.58;4.43;;;2.30;89.40;;;;;;4807887;29;20508;-71
2022/03/06 08:43:14;;;;;;;16.98;3.97;;;2.40;89.40;;;;;;4808618;29;20138;-71
2022/03/06 08:45:42;;;;;;;18.45;4.18;;;2.50;89.40;;;;;;4821902;29;20055;-71
2022/03/06 08:48:10;;;;;;;25.10;5.45;;;2.60;89.30;;;;;;4807927;29;20077;-71
2022/03/06 08:50:37;;;;;;;12.80;4.43;;;2.80;89.30;;;;;;4803488;29;20509;-70
2022/03/06 08:53:06;;;;;;;16.70;4.32;;;2.80;89.10;;;;;;4807405;29;20062;-71
2022/03/06 08:55:34;;;;;;;15.77;3.75;;;3.00;88.90;;;;;;4803291;29;20055;-70
2022/03/06 08:58:01;;;;;;;10.65;3.90;;;3.20;88.70;;;;;;4805449;29;20076;-70
2022/03/06 09:00:29;;;;;;;11.45;3.90;;;3.30;88.50;;;;;;4820456;29;20063;-71
2022/03/06 09:02:57;;;;;;;13.80;4.10;;;3.30;88.30;;;;;;4806020;29;20059;-70
2022/03/06 09:05:25;;;;;;;11.45;3.42;;;3.40;88.00;;;;;;4807072;29;20062;-70
2022/03/06 09:07:52;;;;;;;25.63;4.80;;;3.50;87.80;;;;;;4807959;29;20054;-70
2022/03/06 09:10:20;;;;;;;23.92;3.78;;;3.60;87.50;;;;;;4830030;29;20363;-70
2022/03/06 09:12:47;;;;;;;17.48;3.17;;;3.80;87.40;;;;;;4807938;29;20470;-70
2022/03/06 09:15:15;;;;;;;8.57;3.10;;;3.80;87.20;;;;;;4807752;29;20458;-71
2022/03/06 09:17:43;;;;;;;8.70;3.35;;;4.00;87.00;;;;;;4806209;29;20043;-70
2022/03/06 09:20:11;;;;;;;13.68;3.55;;;4.20;86.50;;;;;;4806643;29;20055;-70
2022/03/06 09:22:38;;;;;;;13.27;3.33;;;4.30;86.00;;;;;;4807377;29;20054;-71
2022/03/06 09:25:06;;;;;;;12.43;2.95;;;4.30;85.70;;;;;;4807483;29;20059;-70
2022/03/06 09:27:35;;;;;;;16.67;2.25;;;4.40;85.60;;;;;;4807307;29;20051;-70
2022/03/06 09:30:04;;;;;;;13.93;2.40;;;4.40;85.40;;;;;;4807642;29;20505;-70
2022/03/06 09:32:32;;;;;;;10.65;2.65;;;4.50;85.30;;;;;;4799109;29;20056;-70
2022/03/06 09:35:00;;;;;;;7.93;2.53;;;4.50;85.00;;;;;;4806719;29;20426;-70
2022/03/06 09:37:28;;;;;;;11.60;2.80;;;4.60;84.80;;;;;;4806779;29;20054;-70
2022/03/06 09:39:55;;;;;;;14.32;2.63;;;4.70;84.70;;;;;;4823831;29;20055;-71
2022/03/06 09:42:23;;;;;;;9.80;2.45;;;4.80;84.30;;;;;;4806404;29;20051;-70
2022/03/06 09:44:51;;;;;;;10.93;2.80;;;4.90;84.00;;;;;;4821274;29;20418;-70
2022/03/06 09:47:18;;;;;;;9.65;2.50;;;5.00;83.90;;;;;;4804654;29;20043;-70
2022/03/06 09:49:46;;;;;;;16.88;4.38;;;5.20;83.80;;;;;;4805093;29;20517;-70
2022/03/06 09:52:14;;;;;;;10.48;2.70;;;5.30;83.00;;;;;;4776727;29;20063;-71
2022/03/06 09:54:43;;;;;;;17.02;3.88;;;5.40;82.60;;;;;;4807102;29;20054;-71
2022/03/06 09:57:16;;;;;;;9.90;2.70;;;5.50;81.90;;;;;;4800992;29;20062;-72
2022/03/06 09:59:44;;;;;;;;;;;5.50;81.60;;;;;;4800679;29;20062;-71
2022/03/06 10:02:12;;;;;;;10.82;2.67;;;5.50;81.60;;;;;;4789856;29;19926;-71
2022/03/06 10:04:40;;;;;;;12.05;2.47;;;5.60;81.80;;;;;;4804558;29;20054;-71
2022/03/06 10:07:09;;;;;;;17.67;2.92;;;5.70;81.80;;;;;;4806195;29;20055;-71
2022/03/06 10:09:45;;;;;;;10.18;2.63;;;5.80;81.50;;;;;;4804682;29;20075;-71
2022/03/06 10:12:20;;;;;;;9.20;2.35;;;6.00;81.30;;;;;;4801162;29;20490;-71
2022/03/06 10:14:48;;;;;;;11.70;2.75;;;6.30;81.00;;;;;;4799864;29;20529;-71
2022/03/06 10:17:19;;;;;;;9.55;2.13;;;6.50;80.80;;;;;;4803198;29;20042;-73
2022/03/06 10:19:57;;;;;;;8.18;1.88;;;6.70;80.00;;;;;;4804535;29;20073;-71
2022/03/06 10:22:27;;;;;;;6.30;1.17;;;6.80;79.70;;;;;;4804736;29;20051;-71
2022/03/06 10:25:06;;;;;;;8.35;0.90;;;6.80;78.50;;;;;;4804410;29;20051;-71
2022/03/06 10:27:44;;;;;;;5.00;1.00;;;6.70;78.00;;;;;;4804544;29;20378;-71
2022/03/06 10:30:44;;;;;;;6.53;1.17;;;6.70;77.50;;;;;;4805455;29;20058;-70
2022/03/06 10:33:20;;;;;;;9.32;1.20;;;6.70;77.00;;;;;;4794610;29;20062;-70
2022/03/06 10:35:50;;;;;;;5.95;0.70;;;6.70;76.80;;;;;;4804015;29;20170;-71
2022/03/06 10:38:33;;;;;;;5.10;1.40;;;6.60;76.40;;;;;;4802925;29;20051;-71
2022/03/06 10:41:13;;;;;;;7.68;1.00;;;6.70;76.20;;;;;;4793299;29;20051;-70
2022/03/06 10:43:41;;;;;;;8.65;0.82;;;6.70;75.30;;;;;;4811386;29;20057;-70
2022/03/06 10:46:11;;;;;;;5.82;1.08;;;6.70;75.00;;;;;;4820454;29;20059;-70
2022/03/06 10:48:41;;;;;;;11.93;1.17;;;6.80;74.90;;;;;;4806455;29;20055;-71
2022/03/06 10:51:11;;;;;;;4.95;1.08;;;6.80;75.00;;;;;;4805080;29;20065;-70
2022/03/06 10:53:39;;;;;;;7.57;1.20;;;7.00;74.70;;;;;;4794955;29;20059;-70
2022/03/06 10:56:10;;;;;;;3.97;0.95;;;7.10;74.00;;;;;;4819694;29;20055;-70
2022/03/06 10:58:41;;;;;;;7.90;1.27;;;7.10;73.80;;;;;;4815227;29;20055;-71
2022/03/06 11:01:26;;;;;;;5.32;0.98;;;7.00;73.50;;;;;;4802000;29;20058;-71
2022/03/06 11:03:58;;;;;;;4.05;0.90;;;7.20;72.70;;;;;;4787130;30;20059;-71
2022/03/06 11:06:27;;;;;;;3.38;1.13;;;7.40;72.20;;;;;;4788059;30;20058;-70
2022/03/06 11:08:56;;;;;;;7.30;1.20;;;7.50;71.30;;;;;;4787848;30;20059;-70
2022/03/06 11:11:24;;;;;;;7.63;1.58;;;7.60;70.70;;;;;;4786996;30;20055;-70
2022/03/06 11:13:55;;;;;;;3.17;1.08;;;7.70;70.90;;;;;;4787467;29;20059;-70
2022/03/06 11:16:23;;;;;;;4.00;0.98;;;8.00;70.20;;;;;;4797838;29;20046;-70
2022/03/06 11:18:52;;;;;;;4.88;1.02;;;8.30;69.60;;;;;;4805870;29;20054;-70
2022/03/06 11:21:24;;;;;;;5.93;1.00;;;8.60;68.50;;;;;;4805309;29;20051;-71
2022/03/06 11:23:54;;;;;;;7.90;1.45;;;8.80;67.50;;;;;;4819993;29;20534;-70
2022/03/06 11:26:54;;;;;;;3.53;1.30;;;9.10;66.80;;;;;;4804803;29;20074;-70
2022/03/06 11:29:46;;;;;;;7.95;1.38;;;9.20;66.00;;;;;;4791375;29;20067;-71
2022/03/06 11:32:23;;;;;;;7.30;1.13;;;9.20;65.80;;;;;;4804491;29;20509;-71
2022/03/06 11:34:53;;;;;;;6.68;1.20;;;9.30;65.10;;;;;;4804675;29;20102;-71
2022/03/06 11:37:24;;;;;;;4.28;0.93;;;9.40;64.40;;;;;;4823327;29;20051;-71
2022/03/06 11:39:52;;;;;;;6.40;1.23;;;9.40;63.90;;;;;;4803875;29;20059;-71
2022/03/06 11:42:57;;;;;;;5.82;1.10;;;9.20;63.50;;;;;;4805475;29;20078;-71
2022/03/06 11:45:48;;;;;;;7.95;1.33;;;8.80;63.60;;;;;;4805482;29;20058;-71
2022/03/06 11:48:26;;;;;;;5.40;1.42;;;8.50;63.80;;;;;;4805510;29;20050;-71
2022/03/06 11:51:12;;;;;;;9.38;1.33;;;8.20;64.10;;;;;;4805342;29;20402;-71
2022/03/06 11:54:00;;;;;;;9.93;1.10;;;8.00;64.70;;;;;;4805298;29;20063;-70
2022/03/06 11:56:34;;;;;;;3.92;1.00;;;7.90;65.10;;;;;;4819604;29;20502;-71
2022/03/06 11:59:03;;;;;;;3.60;1.30;;;7.80;65.40;;;;;;4804889;29;20050;-71
2022/03/06 12:01:43;;;;;;;10.57;1.52;;;7.80;65.70;;;;;;4803950;29;20047;-70
2022/03/06 12:04:24;;;;;;;5.88;1.23;;;7.70;65.80;;;;;;4804528;29;20065;-71
2022/03/06 12:07:04;;;;;;;8.15;1.33;;;8.00;66.20;;;;;;4804112;29;20054;-71
2022/03/06 12:09:34;;;;;;;4.80;1.30;;;8.50;65.70;;;;;;4819339;29;20050;-71
2022/03/06 12:12:14;;;;;;;6.47;1.77;;;8.70;64.40;;;;;;4789089;29;20403;-71
2022/03/06 12:14:54;;;;;;;4.38;1.15;;;8.60;64.00;;;;;;4804056;29;20047;-70
2022/03/06 12:17:31;;;;;;;5.75;1.02;;;8.60;63.80;;;;;;4804180;29;20065;-71
2022/03/06 12:19:58;;;;;;;3.80;1.00;;;8.60;62.80;;;;;;4804824;29;20073;-70
2022/03/06 12:22:29;;;;;;;4.28;0.77;;;8.90;63.50;;;;;;4804682;29;20066;-71
2022/03/06 12:25:08;;;;;;;6.63;0.85;;;9.30;61.90;;;;;;4818251;29;20085;-71
2022/03/06 12:27:41;;;;;;;7.82;1.10;;;9.90;60.70;;;;;;4804706;29;20051;-70
2022/03/06 12:30:16;;;;;;;5.17;0.90;;;10.30;59.00;;;;;;4805188;29;20061;-71
2022/03/06 12:32:44;;;;;;;4.72;0.90;;;10.70;57.50;;;;;;4804953;29;20310;-71
2022/03/06 12:35:15;;;;;;;4.38;1.13;;;11.00;55.40;;;;;;4804690;29;20058;-70
2022/03/06 12:37:44;;;;;;;3.80;1.00;;;11.20;54.00;;;;;;4804995;29;20062;-70
2022/03/06 12:40:17;;;;;;;5.15;1.17;;;11.20;53.10;;;;;;4804997;29;20055;-69
2022/03/06 12:42:46;;;;;;;8.45;1.17;;;11.00;52.80;;;;;;4803788;29;20058;-72
2022/03/06 12:45:17;;;;;;;4.15;1.08;;;10.90;52.40;;;;;;4804903;29;20051;-70
2022/03/06 12:47:46;;;;;;;6.38;0.93;;;10.60;51.80;;;;;;4804800;29;20074;-71
2022/03/06 12:50:19;;;;;;;2.92;1.02;;;10.10;51.90;;;;;;4802109;29;20074;-70
2022/03/06 12:52:48;;;;;;;7.07;1.17;;;9.70;52.90;;;;;;4804977;29;20054;-70
2022/03/06 12:55:18;;;;;;;8.20;1.25;;;9.50;53.50;;;;;;4803450;29;20066;-70
2022/03/06 12:57:50;;;;;;;6.88;0.98;;;9.20;54.00;;;;;;4804859;29;20055;-70
2022/03/06 13:00:23;;;;;;;5.60;0.90;;;9.20;54.80;;;;;;4803533;29;20509;-71
2022/03/06 13:02:56;;;;;;;4.80;1.20;;;9.30;54.90;;;;;;4804379;29;20055;-70